createdAt,value
2018-04-16T00:01:25.200Z,62.82
2018-04-16T00:03:53.043Z,63.09
2018-04-16T00:06:20.634Z,62.87
2018-04-16T00:08:48.163Z,62.88
2018-04-16T00:11:15.706Z,63.33
2018-04-16T00:13:43.246Z,63.35
2018-04-16T00:16:10.780Z,63.28
2018-04-16T00:18:38.313Z,63.50
2018-04-16T00:21:05.843Z,63.65
2018-04-16T00:23:33.391Z,64.06
2018-04-16T00:26:00.912Z,64.32
2018-04-16T00:28:28.671Z,64.43
2018-04-16T00:30:56.216Z,64.29
2018-04-16T00:33:29.455Z,64.09
2018-04-16T00:36:02.706Z,64.23
2018-04-16T00:41:51.183Z,64.33
2018-04-16T00:44:24.340Z,64.53
2018-04-16T00:46:57.387Z,64.48
2018-04-16T00:49:30.495Z,64.70
2018-04-16T00:52:03.711Z,64.46
2018-04-16T00:54:36.800Z,64.75
2018-04-16T00:57:09.982Z,64.57
2018-04-16T00:59:43.149Z,65.07
2018-04-16T01:02:16.389Z,64.73
2018-04-16T01:04:49.607Z,64.52
2018-04-16T01:07:22.735Z,64.56
2018-04-16T01:09:55.912Z,64.57
2018-04-16T01:12:28.956Z,64.61
2018-04-16T01:15:02.028Z,64.64
2018-04-16T01:17:35.298Z,64.80
2018-04-16T01:20:08.384Z,64.91
2018-04-16T01:22:41.584Z,65.06
2018-04-16T01:25:14.700Z,64.76
2018-04-16T01:27:47.906Z,65.14
2018-04-16T01:30:25.976Z,64.94
2018-04-16T01:32:59.431Z,64.78
2018-04-16T01:35:32.553Z,65.01
2018-04-16T01:38:06.259Z,64.59
2018-04-16T01:40:39.524Z,64.89
2018-04-16T01:43:12.615Z,65.17
2018-04-16T01:45:45.622Z,64.92
2018-04-16T01:48:18.991Z,64.92
2018-04-16T01:50:52.246Z,64.68
2018-04-16T01:53:25.386Z,64.82
2018-04-16T01:55:58.635Z,64.97
2018-04-16T01:58:31.720Z,64.71
2018-04-16T02:01:04.944Z,64.77
2018-04-16T02:03:38.134Z,64.62
2018-04-16T02:06:11.205Z,64.78
2018-04-16T02:08:44.188Z,64.74
2018-04-16T02:11:17.407Z,64.60
2018-04-16T02:16:55.244Z,64.92
2018-04-16T02:19:28.400Z,64.71
2018-04-16T02:22:01.582Z,64.93
2018-04-16T02:24:34.639Z,64.70
2018-04-16T02:27:07.731Z,64.75
2018-04-16T02:29:40.914Z,64.71
2018-04-16T02:32:13.988Z,65.00
2018-04-16T02:34:47.084Z,64.80
2018-04-16T02:37:20.272Z,65.52
2018-04-16T02:39:53.435Z,65.00
2018-04-16T02:42:26.576Z,64.60
2018-04-16T02:44:59.586Z,64.67
2018-04-16T02:47:32.853Z,64.53
2018-04-16T02:50:05.899Z,64.43
2018-04-16T02:52:39.289Z,64.51
2018-04-16T02:58:15.557Z,64.83
2018-04-16T03:03:52.830Z,64.84
2018-04-16T03:06:25.907Z,64.59
2018-04-16T03:08:59.021Z,64.60
2018-04-16T03:11:32.230Z,64.33
2018-04-16T03:14:05.459Z,64.74
2018-04-16T03:16:38.581Z,64.59
2018-04-16T03:19:12.090Z,64.85
2018-04-16T03:21:45.241Z,64.97
2018-04-16T03:24:18.495Z,65.15
2018-04-16T03:26:51.977Z,65.04
2018-04-16T03:29:25.123Z,64.97
2018-04-16T03:31:58.376Z,65.42
2018-04-16T03:34:31.318Z,65.15
2018-04-16T03:37:04.263Z,65.38
2018-04-16T03:39:37.544Z,65.08
2018-04-16T03:42:10.654Z,65.01
2018-04-16T03:44:44.071Z,65.15
2018-04-16T03:47:17.303Z,64.87
2018-04-16T03:49:50.562Z,64.57
2018-04-16T03:52:23.613Z,65.29
2018-04-16T03:57:54.219Z,65.26
2018-04-16T04:00:22.022Z,65.24
2018-04-16T04:02:49.533Z,65.77
2018-04-16T04:05:17.070Z,65.66
2018-04-16T04:07:44.605Z,65.35
2018-04-16T04:10:12.160Z,65.73
2018-04-16T04:12:39.724Z,66.05
2018-04-16T04:15:07.280Z,66.03
2018-04-16T04:17:34.807Z,66.25
2018-04-16T04:20:02.332Z,66.20
2018-04-16T04:22:41.739Z,66.16
2018-04-16T04:25:21.133Z,66.59
2018-04-16T04:28:00.446Z,66.37
2018-04-16T04:30:45.746Z,66.59
2018-04-16T04:33:13.260Z,66.48
2018-04-16T04:35:40.843Z,66.82
2018-04-16T04:38:08.374Z,67.06
2018-04-16T04:40:35.928Z,66.72
2018-04-16T04:43:03.431Z,66.93
2018-04-16T04:45:30.967Z,66.92
2018-04-16T04:47:58.632Z,67.12
2018-04-16T04:50:26.137Z,66.90
2018-04-16T04:52:53.648Z,66.86
2018-04-16T04:55:21.184Z,67.02
2018-04-16T04:57:48.714Z,66.58
2018-04-16T05:00:16.277Z,66.83
2018-04-16T05:02:43.811Z,67.08
2018-04-16T05:05:11.348Z,66.94
2018-04-16T05:07:38.904Z,67.11
2018-04-16T05:10:06.438Z,67.57
2018-04-16T05:12:33.998Z,67.30
2018-04-16T05:15:01.888Z,67.26
2018-04-16T05:17:29.460Z,67.73
2018-04-16T05:19:57.000Z,67.89
2018-04-16T05:22:24.560Z,67.30
2018-04-16T05:24:52.126Z,67.49
2018-04-16T05:27:19.670Z,67.25
2018-04-16T05:29:47.220Z,67.71
2018-04-16T05:32:14.793Z,67.43
2018-04-16T05:34:42.347Z,67.14
2018-04-16T05:37:09.906Z,67.19
2018-04-16T05:39:37.432Z,67.29
2018-04-16T05:42:04.978Z,66.95
2018-04-16T05:44:32.508Z,67.14
2018-04-16T05:47:00.047Z,67.31
2018-04-16T05:49:27.549Z,67.43
2018-04-16T05:51:55.085Z,67.25
2018-04-16T05:54:22.855Z,67.29
2018-04-16T05:56:50.381Z,67.18
2018-04-16T05:59:17.909Z,67.54
2018-04-16T06:01:45.431Z,67.98
2018-04-16T06:04:13.297Z,67.98
2018-04-16T06:06:40.962Z,68.13
2018-04-16T06:09:08.621Z,68.26
2018-04-16T06:11:36.187Z,68.53
2018-04-16T06:14:03.713Z,69.13
2018-04-16T06:16:31.280Z,69.96
2018-04-16T06:18:59.072Z,70.36
2018-04-16T06:21:26.626Z,70.12
2018-04-16T06:23:54.147Z,70.67
2018-04-16T06:26:21.695Z,72.04
2018-04-16T06:28:49.444Z,72.44
2018-04-16T06:31:17.117Z,72.08
2018-04-16T06:33:45.030Z,71.88
2018-04-16T06:36:12.542Z,72.27
2018-04-16T06:38:40.164Z,72.57
2018-04-16T06:41:07.715Z,73.23
2018-04-16T06:43:35.600Z,73.21
2018-04-16T06:46:03.141Z,73.92
2018-04-16T06:48:30.926Z,73.58
2018-04-16T06:50:58.482Z,73.58
2018-04-16T06:53:26.003Z,73.78
2018-04-16T06:55:53.554Z,73.41
2018-04-16T06:58:21.082Z,73.31
2018-04-16T07:00:48.633Z,74.32
2018-04-16T07:03:16.507Z,73.92
2018-04-16T07:05:44.036Z,74.38
2018-04-16T07:08:11.595Z,73.65
2018-04-16T07:10:39.120Z,73.90
2018-04-16T07:13:06.835Z,73.85
2018-04-16T07:15:34.374Z,75.11
2018-04-16T07:18:01.950Z,73.55
2018-04-16T07:20:29.487Z,73.90
2018-04-16T07:22:57.028Z,74.01
2018-04-16T07:25:24.574Z,75.15
2018-04-16T07:27:52.174Z,75.17
2018-04-16T07:30:19.727Z,75.07
2018-04-16T07:32:47.254Z,75.45
2018-04-16T07:35:15.100Z,75.71
2018-04-16T07:37:42.688Z,75.96
2018-04-16T07:40:10.328Z,75.79
2018-04-16T07:42:37.908Z,74.46
2018-04-16T07:45:05.708Z,74.76
2018-04-16T07:47:33.335Z,75.62
2018-04-16T07:50:00.979Z,75.60
2018-04-16T07:52:29.020Z,76.51
2018-04-16T07:54:57.117Z,76.40
2018-04-16T07:57:25.132Z,75.57
2018-04-16T07:59:53.568Z,76.62
2018-04-16T08:02:21.701Z,77.05
2018-04-16T08:04:49.658Z,77.08
2018-04-16T08:07:17.448Z,76.86
2018-04-16T08:09:45.047Z,76.37
2018-04-16T08:12:12.622Z,75.99
2018-04-16T08:14:40.148Z,76.03
2018-04-16T08:17:07.717Z,75.71
2018-04-16T08:19:37.077Z,75.38
2018-04-16T08:22:04.629Z,76.25
2018-04-16T08:24:32.155Z,76.19
2018-04-16T08:26:59.691Z,76.11
2018-04-16T08:29:27.231Z,75.86
2018-04-16T08:31:54.807Z,75.78
2018-04-16T08:34:22.372Z,75.63
2018-04-16T08:36:49.911Z,75.37
2018-04-16T08:39:17.822Z,75.66
2018-04-16T08:41:45.560Z,75.37
2018-04-16T08:44:13.091Z,75.68
2018-04-16T08:46:40.931Z,75.03
2018-04-16T08:49:08.447Z,75.41
2018-04-16T08:51:36.044Z,75.31
2018-04-16T08:54:03.569Z,75.35
2018-04-16T08:56:31.085Z,74.87
2018-04-16T08:58:58.608Z,74.49
2018-04-16T09:01:26.126Z,74.29
2018-04-16T09:03:53.663Z,74.18
2018-04-16T09:06:21.190Z,73.80
2018-04-16T09:08:48.817Z,74.11
2018-04-16T09:11:16.312Z,73.39
2018-04-16T09:13:44.183Z,73.84
2018-04-16T09:16:11.735Z,73.42
2018-04-16T09:18:39.288Z,73.75
2018-04-16T09:21:06.839Z,72.80
2018-04-16T09:23:34.365Z,72.68
2018-04-16T09:26:01.947Z,73.13
2018-04-16T09:28:29.476Z,72.86
2018-04-16T09:30:57.032Z,72.16
2018-04-16T09:33:24.602Z,72.31
2018-04-16T09:35:52.163Z,72.62
2018-04-16T09:38:19.759Z,72.12
2018-04-16T09:40:47.276Z,72.58
2018-04-16T09:43:14.840Z,72.52
2018-04-16T09:45:42.425Z,71.78
2018-04-16T09:48:10.233Z,71.84
2018-04-16T09:50:37.807Z,72.46
2018-04-16T09:53:05.375Z,72.44
2018-04-16T09:55:33.222Z,72.00
2018-04-16T09:58:00.751Z,72.17
2018-04-16T10:00:28.329Z,72.09
2018-04-16T10:02:57.883Z,72.15
2018-04-16T10:05:25.424Z,72.04
2018-04-16T10:07:53.001Z,71.81
2018-04-16T10:10:20.534Z,71.95
2018-04-16T10:12:48.281Z,72.32
2018-04-16T10:15:15.938Z,72.94
2018-04-16T10:17:44.143Z,72.43
2018-04-16T10:20:11.731Z,72.50
2018-04-16T10:22:39.691Z,73.15
2018-04-16T10:25:07.541Z,72.05
2018-04-16T10:27:35.639Z,71.55
2018-04-16T10:30:03.828Z,71.41
2018-04-16T10:32:31.491Z,70.65
2018-04-16T10:34:59.201Z,70.36
2018-04-16T10:37:27.015Z,70.20
2018-04-16T10:39:54.813Z,69.12
2018-04-16T10:42:22.788Z,68.80
2018-04-16T10:44:50.424Z,67.22
2018-04-16T10:47:17.948Z,66.73
2018-04-16T10:49:45.518Z,66.04
2018-04-16T10:52:13.060Z,65.90
2018-04-16T10:54:40.625Z,65.14
2018-04-16T10:57:08.576Z,64.46
2018-04-16T10:59:37.000Z,64.00
2018-04-16T11:02:04.558Z,62.90
2018-04-16T11:04:32.287Z,62.64
2018-04-16T11:06:59.849Z,61.63
2018-04-16T11:09:27.427Z,61.28
2018-04-16T11:11:55.009Z,60.57
2018-04-16T11:14:22.620Z,59.89
2018-04-16T11:16:50.213Z,59.38
2018-04-16T11:19:17.744Z,59.06
2018-04-16T11:21:45.375Z,58.63
2018-04-16T11:24:12.887Z,57.83
2018-04-16T11:26:40.431Z,56.05
2018-04-16T11:29:07.990Z,55.15
2018-04-16T11:31:35.541Z,53.93
2018-04-16T11:34:03.115Z,52.35
2018-04-16T11:36:30.656Z,50.73
2018-04-16T11:38:58.177Z,49.44
2018-04-16T11:41:25.769Z,48.81
2018-04-16T11:43:53.296Z,47.56
2018-04-16T11:46:20.882Z,46.67
2018-04-16T11:48:48.437Z,46.90
2018-04-16T11:51:15.990Z,46.38
2018-04-16T11:53:43.544Z,46.43
2018-04-16T11:56:11.108Z,45.74
2018-04-16T11:58:38.675Z,45.61
2018-04-16T12:01:06.201Z,45.50
2018-04-16T12:03:34.074Z,44.35
2018-04-16T12:06:01.633Z,43.29
2018-04-16T12:08:29.323Z,41.99
2018-04-16T12:10:56.888Z,41.62
2018-04-16T12:13:24.658Z,41.37
2018-04-16T12:15:52.180Z,42.75
2018-04-16T12:18:19.766Z,45.08
2018-04-16T12:20:47.322Z,47.71
2018-04-16T12:23:14.852Z,49.35
2018-04-16T12:25:42.416Z,51.45
2018-04-16T12:28:09.941Z,52.80
2018-04-16T12:30:37.697Z,53.76
2018-04-16T12:33:05.227Z,54.17
2018-04-16T12:35:32.840Z,55.33
2018-04-16T12:38:00.401Z,55.45
2018-04-16T12:40:27.961Z,54.97
2018-04-16T12:42:55.513Z,55.52
2018-04-16T12:45:23.062Z,56.53
2018-04-16T12:47:50.627Z,56.02
2018-04-16T12:50:18.159Z,55.99
2018-04-16T12:52:46.005Z,55.72
2018-04-16T12:55:13.568Z,55.08
2018-04-16T12:57:41.195Z,55.33
2018-04-16T13:00:08.754Z,54.31
2018-04-16T13:02:36.377Z,55.13
2018-04-16T13:05:03.915Z,55.87
2018-04-16T13:07:31.467Z,57.00
2018-04-16T13:09:59.348Z,58.01
2018-04-16T13:12:26.902Z,58.96
2018-04-16T13:14:54.521Z,58.76
2018-04-16T13:17:22.068Z,59.67
2018-04-16T13:19:49.689Z,60.98
2018-04-16T13:22:17.216Z,61.32
2018-04-16T13:24:45.128Z,61.39
2018-04-16T13:27:13.192Z,61.05
2018-04-16T13:29:40.768Z,61.60
2018-04-16T13:32:08.531Z,61.06
2018-04-16T13:34:37.325Z,62.37
2018-04-16T13:37:05.041Z,62.61
2018-04-16T13:39:32.745Z,62.34
2018-04-16T13:42:00.498Z,61.92
2018-04-16T13:44:29.298Z,62.15
2018-04-16T13:46:57.721Z,63.02
2018-04-16T13:49:25.556Z,63.64
2018-04-16T13:51:53.152Z,63.90
2018-04-16T13:54:20.785Z,64.97
2018-04-16T13:56:48.341Z,65.71
2018-04-16T13:59:15.895Z,66.07
2018-04-16T14:01:43.487Z,65.83
2018-04-16T14:04:11.010Z,66.29
2018-04-16T14:06:38.679Z,67.20
2018-04-16T14:09:06.263Z,67.31
2018-04-16T14:11:33.809Z,67.67
2018-04-16T14:14:03.128Z,67.67
2018-04-16T14:16:30.658Z,67.84
2018-04-16T14:18:58.216Z,67.92
2018-04-16T14:21:25.794Z,68.68
2018-04-16T14:23:53.373Z,69.02
2018-04-16T14:26:21.012Z,70.28
2018-04-16T14:28:48.600Z,70.71
2018-04-16T14:31:16.460Z,70.67
2018-04-16T14:33:44.121Z,71.12
2018-04-16T14:36:11.651Z,71.74
2018-04-16T14:38:39.274Z,71.57
2018-04-16T14:41:06.942Z,72.38
2018-04-16T14:43:34.492Z,72.48
2018-04-16T14:46:02.102Z,73.19
2018-04-16T14:48:29.721Z,73.16
2018-04-16T14:50:57.317Z,73.75
2018-04-16T14:53:24.885Z,74.17
2018-04-16T14:55:52.458Z,73.55
2018-04-16T14:58:20.405Z,73.83
2018-04-16T15:00:48.569Z,74.70
2018-04-16T15:03:16.404Z,75.40
2018-04-16T15:05:43.976Z,74.88
2018-04-16T15:08:11.606Z,75.50
2018-04-16T15:10:39.200Z,75.75
2018-04-16T15:13:06.806Z,75.85
2018-04-16T15:15:34.531Z,76.20
2018-04-16T15:18:02.092Z,76.01
2018-04-16T15:20:29.642Z,76.58
2018-04-16T15:22:57.196Z,76.62
2018-04-16T15:25:27.353Z,76.75
2018-04-16T15:27:55.200Z,76.80
2018-04-16T15:30:22.782Z,76.75
2018-04-16T15:32:50.577Z,77.04
2018-04-16T15:35:19.080Z,77.76
2018-04-16T15:37:46.633Z,78.24
2018-04-16T15:40:14.201Z,77.92
2018-04-16T15:42:41.744Z,77.49
2018-04-16T15:45:09.349Z,77.85
2018-04-16T15:47:37.299Z,77.97
2018-04-16T15:50:04.836Z,78.38
2018-04-16T15:52:33.360Z,78.76
2018-04-16T15:55:01.251Z,78.60
2018-04-16T15:57:28.773Z,79.01
2018-04-16T15:59:56.369Z,79.12
2018-04-16T16:02:24.227Z,79.49
2018-04-16T16:04:51.855Z,79.14
2018-04-16T16:07:19.411Z,79.14
2018-04-16T16:09:47.014Z,79.02
2018-04-16T16:12:14.584Z,79.34
2018-04-16T16:14:42.157Z,79.43
2018-04-16T16:17:09.756Z,79.08
2018-04-16T16:19:37.294Z,79.21
2018-04-16T16:22:04.813Z,79.76
2018-04-16T16:24:32.399Z,79.82
2018-04-16T16:26:59.928Z,79.69
2018-04-16T16:29:27.478Z,79.68
2018-04-16T16:31:55.035Z,80.04
2018-04-16T16:34:22.586Z,79.52
2018-04-16T16:36:50.299Z,79.48
2018-04-16T16:39:17.858Z,79.17
2018-04-16T16:41:45.725Z,79.47
2018-04-16T16:44:13.241Z,78.99
2018-04-16T16:46:41.156Z,79.33
2018-04-16T16:49:09.142Z,79.62
2018-04-16T16:51:36.701Z,79.29
2018-04-16T16:54:04.451Z,79.58
2018-04-16T16:56:32.937Z,79.95
2018-04-16T16:59:00.564Z,79.98
2018-04-16T17:01:28.135Z,80.14
2018-04-16T17:03:55.796Z,79.95
2018-04-16T17:06:23.798Z,80.20
2018-04-16T17:08:52.071Z,80.38
2018-04-16T17:11:19.686Z,80.32
2018-04-16T17:13:47.525Z,80.14
2018-04-16T17:16:15.126Z,79.53
2018-04-16T17:18:42.760Z,79.82
2018-04-16T17:21:10.382Z,80.08
2018-04-16T17:23:37.905Z,80.19
2018-04-16T17:26:05.536Z,80.28
2018-04-16T17:28:33.079Z,80.03
2018-04-16T17:31:00.645Z,80.09
2018-04-16T17:33:28.283Z,79.81
2018-04-16T17:35:55.835Z,79.84
2018-04-16T17:38:23.493Z,79.92
2018-04-16T17:40:51.049Z,80.04
2018-04-16T17:43:18.647Z,79.83
2018-04-16T17:45:46.182Z,79.73
2018-04-16T17:48:13.764Z,79.86
2018-04-16T17:50:41.334Z,80.05
2018-04-16T17:53:08.865Z,79.94
2018-04-16T17:55:36.427Z,80.08
2018-04-16T17:58:03.934Z,80.41
2018-04-16T18:00:31.575Z,80.47
2018-04-16T18:02:59.163Z,80.71
2018-04-16T18:05:27.002Z,80.58
2018-04-16T18:07:54.907Z,80.83
2018-04-16T18:10:22.534Z,80.81
2018-04-16T18:12:50.089Z,80.95
2018-04-16T18:15:17.612Z,80.95
2018-04-16T18:17:45.619Z,81.32
2018-04-16T18:20:13.189Z,81.19
2018-04-16T18:22:40.741Z,81.22
2018-04-16T18:25:08.307Z,81.44
2018-04-16T18:27:35.936Z,81.46
2018-04-16T18:30:03.827Z,81.43
2018-04-16T18:32:31.413Z,81.51
2018-04-16T18:34:58.959Z,81.51
2018-04-16T18:37:26.540Z,81.27
2018-04-16T18:39:54.060Z,81.32
2018-04-16T18:42:21.615Z,81.33
2018-04-16T18:44:49.216Z,81.31
2018-04-16T18:47:16.787Z,81.37
2018-04-16T18:49:44.350Z,81.33
2018-04-16T18:52:11.878Z,81.31
2018-04-16T18:54:39.394Z,81.10
2018-04-16T18:57:07.417Z,81.11
2018-04-16T18:59:34.952Z,81.09
2018-04-16T19:02:02.589Z,81.32
2018-04-16T19:04:30.130Z,81.31
2018-04-16T19:06:58.105Z,81.20
2018-04-16T19:09:25.885Z,81.12
2018-04-16T19:11:53.570Z,81.02
2018-04-16T19:14:21.099Z,81.18
2018-04-16T19:16:48.655Z,80.98
2018-04-16T19:19:16.242Z,80.96
2018-04-16T19:21:49.357Z,81.06
2018-04-16T19:24:16.921Z,80.98
2018-04-16T19:26:50.301Z,80.93
2018-04-16T19:29:19.927Z,80.96
2018-04-16T19:31:47.629Z,81.02
2018-04-16T19:34:26.337Z,81.28
2018-04-16T19:36:54.192Z,81.01
2018-04-16T19:39:21.829Z,81.05
2018-04-16T19:41:56.157Z,80.80
2018-04-16T19:44:23.805Z,80.16
2018-04-16T19:46:51.431Z,79.12
2018-04-16T19:49:24.497Z,78.48
2018-04-16T19:51:52.290Z,77.91
2018-04-16T19:54:20.842Z,77.12
2018-04-16T19:59:51.685Z,76.39
2018-04-16T20:02:24.793Z,76.72
2018-04-16T20:04:52.960Z,76.47
2018-04-16T20:07:20.547Z,76.04
2018-04-16T20:09:48.134Z,75.89
2018-04-16T20:12:16.853Z,74.97
2018-04-16T20:14:44.516Z,75.04
2018-04-16T20:17:12.796Z,75.38
2018-04-16T20:19:40.475Z,74.92
2018-04-16T20:22:08.087Z,74.84
2018-04-16T20:24:35.711Z,74.71
2018-04-16T20:27:03.230Z,74.98
2018-04-16T20:29:30.986Z,75.17
2018-04-16T20:31:58.661Z,74.93
2018-04-16T20:34:26.325Z,75.21
2018-04-16T20:36:54.108Z,75.20
2018-04-16T20:39:23.107Z,74.87
2018-04-16T20:41:50.895Z,74.80
2018-04-16T20:44:18.458Z,74.58
2018-04-16T20:46:46.013Z,74.27
2018-04-16T20:49:13.636Z,74.31
2018-04-16T20:51:41.223Z,74.30
2018-04-16T20:54:08.820Z,74.20
2018-04-16T20:56:36.747Z,74.18
2018-04-16T20:59:04.476Z,74.36
2018-04-16T21:01:32.334Z,73.98
2018-04-16T21:04:00.462Z,73.73
2018-04-16T21:06:31.136Z,74.06
2018-04-16T21:08:59.438Z,73.70
2018-04-16T21:11:27.028Z,73.83
2018-04-16T21:13:55.056Z,73.82
2018-04-16T21:16:22.604Z,73.91
2018-04-16T21:18:50.258Z,73.63
2018-04-16T21:21:19.966Z,73.47
2018-04-16T21:23:52.324Z,73.85
2018-04-16T21:26:22.515Z,74.05
2018-04-16T21:28:50.350Z,74.10
2018-04-16T21:31:18.271Z,73.97
2018-04-16T21:33:45.795Z,74.02
2018-04-16T21:36:13.439Z,74.02
2018-04-16T21:38:40.971Z,74.21
2018-04-16T21:41:08.569Z,74.05
2018-04-16T21:43:39.583Z,74.06
2018-04-16T21:46:09.207Z,74.13
2018-04-16T21:48:36.811Z,74.24
2018-04-16T21:51:04.524Z,74.22
2018-04-16T21:53:32.374Z,74.01
2018-04-16T21:56:00.580Z,74.19
2018-04-16T21:58:28.209Z,74.35
2018-04-16T22:00:55.844Z,74.58
2018-04-16T22:03:23.478Z,74.64
2018-04-16T22:05:51.236Z,74.73
2018-04-16T22:08:19.835Z,74.62
2018-04-16T22:10:49.441Z,74.88
2018-04-16T22:13:16.986Z,74.95
2018-04-16T22:15:45.203Z,74.78
2018-04-16T22:18:13.439Z,75.03
2018-04-16T22:20:41.386Z,75.17
2018-04-16T22:23:08.949Z,75.14
2018-04-16T22:25:36.485Z,75.13
2018-04-16T22:28:04.014Z,74.98
2018-04-16T22:30:32.453Z,74.96
2018-04-16T22:33:00.017Z,74.89
2018-04-16T22:35:27.541Z,74.76
2018-04-16T22:37:55.876Z,74.75
2018-04-16T22:40:23.428Z,74.60
2018-04-16T22:42:51.077Z,74.51
2018-04-16T22:45:18.646Z,74.59
2018-04-16T22:47:46.471Z,74.73
2018-04-16T22:50:14.000Z,74.71
2018-04-16T22:52:41.561Z,74.94
2018-04-16T22:55:09.120Z,74.67
2018-04-16T22:57:36.642Z,74.56
2018-04-16T23:00:04.473Z,74.67
2018-04-16T23:02:32.052Z,74.73
2018-04-16T23:04:59.594Z,74.90
2018-04-16T23:07:27.133Z,74.96
2018-04-16T23:09:54.637Z,74.77
2018-04-16T23:12:22.171Z,74.71
2018-04-16T23:14:49.726Z,74.67
2018-04-16T23:17:17.257Z,74.73
2018-04-16T23:19:44.846Z,74.86
2018-04-16T23:22:15.178Z,74.86
2018-04-16T23:24:42.752Z,74.92
2018-04-16T23:27:10.617Z,74.82
2018-04-16T23:29:38.600Z,74.61
2018-04-16T23:32:06.129Z,74.36
2018-04-16T23:34:33.964Z,74.46
2018-04-16T23:37:01.511Z,74.32
2018-04-16T23:39:29.334Z,74.47
2018-04-16T23:41:56.852Z,74.19
2018-04-16T23:44:24.408Z,73.69
2018-04-16T23:46:51.948Z,73.53
2018-04-16T23:49:19.481Z,73.43
2018-04-16T23:51:47.045Z,73.17
2018-04-16T23:54:14.577Z,73.43
2018-04-16T23:56:42.900Z,73.54
2018-04-16T23:59:10.482Z,73.51
